sensor_id;sensor_type;location;lat;lon;timestamp;temperature;humidity
12291;DHT22;6208;48.956;9.076;2023-05-17T00:00:01;9.50;99.30
12291;DHT22;6208;48.956;9.076;2023-05-17T00:02:45;9.50;99.60
12291;DHT22;6208;48.956;9.076;2023-05-17T00:05:30;9.40;99.90
12291;DHT22;6208;48.956;9.076;2023-05-17T00:08:14;9.50;99.80
12291;DHT22;6208;48.956;9.076;2023-05-17T00:10:58;9.60;99.60
12291;DHT22;6208;48.956;9.076;2023-05-17T00:13:42;9.70;98.90
12291;DHT22;6208;48.956;9.076;2023-05-17T00:16:26;9.90;99.00
12291;DHT22;6208;48.956;9.076;2023-05-17T00:21:55;9.70;99.90
12291;DHT22;6208;48.956;9.076;2023-05-17T00:24:40;9.50;99.90
12291;DHT22;6208;48.956;9.076;2023-05-17T00:27:24;9.40;99.90
12291;DHT22;6208;48.956;9.076;2023-05-17T00:32:52;9.40;99.90
12291;DHT22;6208;48.956;9.076;2023-05-17T00:35:36;9.50;99.90
12291;DHT22;6208;48.956;9.076;2023-05-17T00:41:05;9.40;99.90
12291;DHT22;6208;48.956;9.076;2023-05-17T00:43:49;9.40;99.90
12291;DHT22;6208;48.956;9.076;2023-05-17T00:46:33;9.20;99.90
12291;DHT22;6208;48.956;9.076;2023-05-17T00:52:02;9.00;99.90
12291;DHT22;6208;48.956;9.076;2023-05-17T00:54:47;9.00;99.90
12291;DHT22;6208;48.956;9.076;2023-05-17T00:57:32;9.00;99.90
12291;DHT22;6208;48.956;9.076;2023-05-17T01:03:00;9.00;99.90
12291;DHT22;6208;48.956;9.076;2023-05-17T01:08:29;8.80;99.90
12291;DHT22;6208;48.956;9.076;2023-05-17T01:20:27;8.90;99.90
12291;DHT22;6208;48.956;9.076;2023-05-17T01:26:17;9.00;99.90
12291;DHT22;6208;48.956;9.076;2023-05-17T01:29:04;9.10;99.90
12291;DHT22;6208;48.956;9.076;2023-05-17T01:31:48;8.90;99.90
12291;DHT22;6208;48.956;9.076;2023-05-17T01:34:34;8.80;99.90
12291;DHT22;6208;48.956;9.076;2023-05-17T01:37:18;8.80;99.90
12291;DHT22;6208;48.956;9.076;2023-05-17T01:40:03;8.70;99.90
12291;DHT22;6208;48.956;9.076;2023-05-17T01:42:56;8.60;99.90
12291;DHT22;6208;48.956;9.076;2023-05-17T01:45:56;8.60;99.90
12291;DHT22;6208;48.956;9.076;2023-05-17T01:48:54;8.70;99.90
12291;DHT22;6208;48.956;9.076;2023-05-17T01:51:46;8.60;99.90
12291;DHT22;6208;48.956;9.076;2023-05-17T01:54:46;8.60;99.90
12291;DHT22;6208;48.956;9.076;2023-05-17T01:57:34;8.60;99.90
12291;DHT22;6208;48.956;9.076;2023-05-17T02:00:21;8.60;99.90
12291;DHT22;6208;48.956;9.076;2023-05-17T02:03:06;8.70;99.90
12291;DHT22;6208;48.956;9.076;2023-05-17T02:05:50;8.50;99.90
12291;DHT22;6208;48.956;9.076;2023-05-17T02:08:34;8.40;99.90
12291;DHT22;6208;48.956;9.076;2023-05-17T02:14:02;8.30;99.90
12291;DHT22;6208;48.956;9.076;2023-05-17T02:16:46;8.30;99.90
12291;DHT22;6208;48.956;9.076;2023-05-17T02:19:31;8.40;99.90
12291;DHT22;6208;48.956;9.076;2023-05-17T02:25:00;8.50;99.90
12291;DHT22;6208;48.956;9.076;2023-05-17T02:27:44;8.50;99.90
12291;DHT22;6208;48.956;9.076;2023-05-17T02:30:28;8.50;99.90
12291;DHT22;6208;48.956;9.076;2023-05-17T02:33:12;8.50;99.90
12291;DHT22;6208;48.956;9.076;2023-05-17T02:35:56;8.60;99.90
12291;DHT22;6208;48.956;9.076;2023-05-17T02:41:25;8.60;99.90
12291;DHT22;6208;48.956;9.076;2023-05-17T02:46:54;8.40;99.90
12291;DHT22;6208;48.956;9.076;2023-05-17T02:49:39;8.50;99.90
12291;DHT22;6208;48.956;9.076;2023-05-17T02:55:07;8.20;99.90
12291;DHT22;6208;48.956;9.076;2023-05-17T02:57:52;8.30;99.90
12291;DHT22;6208;48.956;9.076;2023-05-17T03:00:36;8.20;99.90
12291;DHT22;6208;48.956;9.076;2023-05-17T03:06:04;8.50;99.90
12291;DHT22;6208;48.956;9.076;2023-05-17T03:08:48;8.50;99.90
12291;DHT22;6208;48.956;9.076;2023-05-17T03:11:33;8.50;99.90
12291;DHT22;6208;48.956;9.076;2023-05-17T03:14:17;8.40;99.90
12291;DHT22;6208;48.956;9.076;2023-05-17T03:17:01;8.40;99.90
12291;DHT22;6208;48.956;9.076;2023-05-17T03:19:45;8.30;99.90
12291;DHT22;6208;48.956;9.076;2023-05-17T03:22:29;8.40;99.90
12291;DHT22;6208;48.956;9.076;2023-05-17T03:25:13;8.20;99.90
12291;DHT22;6208;48.956;9.076;2023-05-17T03:27:57;8.20;99.90
12291;DHT22;6208;48.956;9.076;2023-05-17T03:30:41;8.20;99.90
12291;DHT22;6208;48.956;9.076;2023-05-17T03:41:39;8.10;99.90
12291;DHT22;6208;48.956;9.076;2023-05-17T03:44:25;8.10;99.90
12291;DHT22;6208;48.956;9.076;2023-05-17T03:47:09;8.10;99.90
12291;DHT22;6208;48.956;9.076;2023-05-17T03:49:53;8.00;99.90
12291;DHT22;6208;48.956;9.076;2023-05-17T03:52:37;8.10;99.90
12291;DHT22;6208;48.956;9.076;2023-05-17T03:58:07;8.10;99.90
12291;DHT22;6208;48.956;9.076;2023-05-17T04:00:51;8.10;99.90
12291;DHT22;6208;48.956;9.076;2023-05-17T04:11:50;7.70;99.90
12291;DHT22;6208;48.956;9.076;2023-05-17T04:20:04;7.20;99.90
12291;DHT22;6208;48.956;9.076;2023-05-17T04:31:08;7.00;99.90
12291;DHT22;6208;48.956;9.076;2023-05-17T04:33:51;7.10;99.90
12291;DHT22;6208;48.956;9.076;2023-05-17T04:36:35;6.90;99.90
12291;DHT22;6208;48.956;9.076;2023-05-17T04:44:49;7.00;99.90
12291;DHT22;6208;48.956;9.076;2023-05-17T04:50:19;6.90;99.90
12291;DHT22;6208;48.956;9.076;2023-05-17T04:55:48;7.40;99.90
12291;DHT22;6208;48.956;9.076;2023-05-17T04:58:33;7.40;99.90
12291;DHT22;6208;48.956;9.076;2023-05-17T05:04:02;7.50;99.90
12291;DHT22;6208;48.956;9.076;2023-05-17T05:15:04;7.40;99.90
12291;DHT22;6208;48.956;9.076;2023-05-17T05:17:48;7.60;99.90
12291;DHT22;6208;48.956;9.076;2023-05-17T05:23:16;7.70;99.90
12291;DHT22;6208;48.956;9.076;2023-05-17T05:28:49;7.80;99.90
12291;DHT22;6208;48.956;9.076;2023-05-17T05:31:33;7.70;99.90
12291;DHT22;6208;48.956;9.076;2023-05-17T05:34:17;7.90;99.90
12291;DHT22;6208;48.956;9.076;2023-05-17T05:39:46;8.00;99.90
12291;DHT22;6208;48.956;9.076;2023-05-17T05:47:59;8.50;99.90
12291;DHT22;6208;48.956;9.076;2023-05-17T05:50:43;8.70;99.90
12291;DHT22;6208;48.956;9.076;2023-05-17T05:56:12;9.00;99.90
12291;DHT22;6208;48.956;9.076;2023-05-17T06:01:41;9.20;99.90
12291;DHT22;6208;48.956;9.076;2023-05-17T06:07:14;9.50;99.90
12291;DHT22;6208;48.956;9.076;2023-05-17T06:15:30;9.70;99.90
12291;DHT22;6208;48.956;9.076;2023-05-17T06:20:59;9.80;99.90
12291;DHT22;6208;48.956;9.076;2023-05-17T06:40:11;10.10;99.90
12291;DHT22;6208;48.956;9.076;2023-05-17T06:42:55;10.20;99.90
12291;DHT22;6208;48.956;9.076;2023-05-17T06:45:39;10.40;99.90
12291;DHT22;6208;48.956;9.076;2023-05-17T06:48:24;10.40;99.90
12291;DHT22;6208;48.956;9.076;2023-05-17T06:51:09;10.50;99.90
12291;DHT22;6208;48.956;9.076;2023-05-17T06:53:53;10.50;99.90
12291;DHT22;6208;48.956;9.076;2023-05-17T06:56:38;10.50;99.90
12291;DHT22;6208;48.956;9.076;2023-05-17T06:59:23;10.60;99.90
12291;DHT22;6208;48.956;9.076;2023-05-17T07:04:51;10.60;99.90
12291;DHT22;6208;48.956;9.076;2023-05-17T07:07:35;10.70;99.90
12291;DHT22;6208;48.956;9.076;2023-05-17T07:10:19;10.80;99.90
12291;DHT22;6208;48.956;9.076;2023-05-17T07:18:33;11.10;99.90
12291;DHT22;6208;48.956;9.076;2023-05-17T07:21:17;11.30;99.90
12291;DHT22;6208;48.956;9.076;2023-05-17T07:24:01;11.40;99.90
12291;DHT22;6208;48.956;9.076;2023-05-17T07:26:45;11.40;99.90
12291;DHT22;6208;48.956;9.076;2023-05-17T07:37:45;11.10;99.90
12291;DHT22;6208;48.956;9.076;2023-05-17T07:43:18;11.50;99.90
12291;DHT22;6208;48.956;9.076;2023-05-17T07:46:02;11.60;99.90
12291;DHT22;6208;48.956;9.076;2023-05-17T07:48:46;11.80;99.90
12291;DHT22;6208;48.956;9.076;2023-05-17T07:54:23;12.00;99.90
12291;DHT22;6208;48.956;9.076;2023-05-17T07:57:07;12.00;99.90
12291;DHT22;6208;48.956;9.076;2023-05-17T07:59:52;12.20;99.90
12291;DHT22;6208;48.956;9.076;2023-05-17T08:05:21;12.30;99.90
12291;DHT22;6208;48.956;9.076;2023-05-17T08:08:05;12.30;99.90
12291;DHT22;6208;48.956;9.076;2023-05-17T08:19:03;12.40;99.90
12291;DHT22;6208;48.956;9.076;2023-05-17T08:21:48;12.50;99.90
12291;DHT22;6208;48.956;9.076;2023-05-17T08:27:17;12.60;99.90
12291;DHT22;6208;48.956;9.076;2023-05-17T08:30:01;12.60;99.90
12291;DHT22;6208;48.956;9.076;2023-05-17T08:32:46;12.50;99.90
12291;DHT22;6208;48.956;9.076;2023-05-17T08:38:15;12.90;99.90
12291;DHT22;6208;48.956;9.076;2023-05-17T08:41:00;13.00;99.90
12291;DHT22;6208;48.956;9.076;2023-05-17T08:43:47;13.00;99.80
12291;DHT22;6208;48.956;9.076;2023-05-17T08:46:32;13.10;99.90
12291;DHT22;6208;48.956;9.076;2023-05-17T08:49:20;13.30;98.90
12291;DHT22;6208;48.956;9.076;2023-05-17T08:52:05;13.20;99.30
12291;DHT22;6208;48.956;9.076;2023-05-17T08:57:38;13.40;99.90
12291;DHT22;6208;48.956;9.076;2023-05-17T09:00:24;13.70;99.90
12291;DHT22;6208;48.956;9.076;2023-05-17T09:03:12;13.70;98.20
12291;DHT22;6208;48.956;9.076;2023-05-17T09:05:58;13.90;97.80
12291;DHT22;6208;48.956;9.076;2023-05-17T09:08:43;13.30;96.60
12291;DHT22;6208;48.956;9.076;2023-05-17T09:11:29;13.20;97.60
12291;DHT22;6208;48.956;9.076;2023-05-17T09:14:14;13.40;97.60
12291;DHT22;6208;48.956;9.076;2023-05-17T09:17:02;13.50;98.20
12291;DHT22;6208;48.956;9.076;2023-05-17T09:19:47;13.20;97.30
12291;DHT22;6208;48.956;9.076;2023-05-17T09:25:22;12.90;97.40
12291;DHT22;6208;48.956;9.076;2023-05-17T09:28:07;13.20;98.80
12291;DHT22;6208;48.956;9.076;2023-05-17T09:30:54;13.20;99.70
12291;DHT22;6208;48.956;9.076;2023-05-17T09:33:50;13.20;99.60
12291;DHT22;6208;48.956;9.076;2023-05-17T09:36:36;12.60;99.40
12291;DHT22;6208;48.956;9.076;2023-05-17T09:39:20;12.70;99.90
12291;DHT22;6208;48.956;9.076;2023-05-17T09:42:05;12.70;99.10
12291;DHT22;6208;48.956;9.076;2023-05-17T09:44:52;12.90;97.90
12291;DHT22;6208;48.956;9.076;2023-05-17T09:47:40;13.00;97.20
12291;DHT22;6208;48.956;9.076;2023-05-17T09:53:29;13.20;96.10
12291;DHT22;6208;48.956;9.076;2023-05-17T09:56:14;13.30;97.60
12291;DHT22;6208;48.956;9.076;2023-05-17T09:59:03;13.30;95.70
12291;DHT22;6208;48.956;9.076;2023-05-17T10:01:47;13.20;95.30
12291;DHT22;6208;48.956;9.076;2023-05-17T10:04:34;13.00;96.00
12291;DHT22;6208;48.956;9.076;2023-05-17T10:07:21;13.10;95.90
12291;DHT22;6208;48.956;9.076;2023-05-17T10:10:09;13.20;95.80
12291;DHT22;6208;48.956;9.076;2023-05-17T10:12:54;13.30;93.50
12291;DHT22;6208;48.956;9.076;2023-05-17T10:15:39;13.20;93.80
12291;DHT22;6208;48.956;9.076;2023-05-17T10:18:26;13.20;94.00
12291;DHT22;6208;48.956;9.076;2023-05-17T10:21:11;13.10;95.00
12291;DHT22;6208;48.956;9.076;2023-05-17T10:23:58;13.00;97.00
12291;DHT22;6208;48.956;9.076;2023-05-17T10:26:44;13.00;96.90
12291;DHT22;6208;48.956;9.076;2023-05-17T10:32:15;12.80;96.30
12291;DHT22;6208;48.956;9.076;2023-05-17T10:35:03;12.70;97.50
12291;DHT22;6208;48.956;9.076;2023-05-17T10:37:47;13.00;96.30
12291;DHT22;6208;48.956;9.076;2023-05-17T10:40:32;13.10;96.60
12291;DHT22;6208;48.956;9.076;2023-05-17T10:43:19;13.30;94.50
12291;DHT22;6208;48.956;9.076;2023-05-17T10:46:19;13.30;94.80
12291;DHT22;6208;48.956;9.076;2023-05-17T10:54:38;13.40;95.00
12291;DHT22;6208;48.956;9.076;2023-05-17T10:57:33;13.50;94.00
12291;DHT22;6208;48.956;9.076;2023-05-17T11:00:22;13.30;94.00
12291;DHT22;6208;48.956;9.076;2023-05-17T11:03:18;13.20;94.10
12291;DHT22;6208;48.956;9.076;2023-05-17T11:06:14;13.20;94.40
12291;DHT22;6208;48.956;9.076;2023-05-17T11:09:13;13.50;94.70
12291;DHT22;6208;48.956;9.076;2023-05-17T11:12:07;13.30;94.50
12291;DHT22;6208;48.956;9.076;2023-05-17T11:14:52;13.40;94.90
12291;DHT22;6208;48.956;9.076;2023-05-17T11:23:15;13.70;94.30
12291;DHT22;6208;48.956;9.076;2023-05-17T11:26:14;13.80;92.90
12291;DHT22;6208;48.956;9.076;2023-05-17T11:29:05;13.50;94.30
12291;DHT22;6208;48.956;9.076;2023-05-17T11:37:27;13.70;94.50
12291;DHT22;6208;48.956;9.076;2023-05-17T11:40:12;13.70;93.70
12291;DHT22;6208;48.956;9.076;2023-05-17T11:43:17;13.60;94.60
12291;DHT22;6208;48.956;9.076;2023-05-17T11:46:02;13.40;95.90
12291;DHT22;6208;48.956;9.076;2023-05-17T11:48:52;13.40;97.20
12291;DHT22;6208;48.956;9.076;2023-05-17T11:51:36;13.40;96.50
12291;DHT22;6208;48.956;9.076;2023-05-17T11:54:23;13.60;95.60
12291;DHT22;6208;48.956;9.076;2023-05-17T11:57:10;13.50;92.70
12291;DHT22;6208;48.956;9.076;2023-05-17T12:00:00;13.50;94.20
12291;DHT22;6208;48.956;9.076;2023-05-17T12:02:45;13.50;94.00
12291;DHT22;6208;48.956;9.076;2023-05-17T12:05:29;13.40;95.00
12291;DHT22;6208;48.956;9.076;2023-05-17T12:08:17;13.50;94.60
12291;DHT22;6208;48.956;9.076;2023-05-17T12:11:03;13.40;95.50
12291;DHT22;6208;48.956;9.076;2023-05-17T12:13:49;13.50;95.20
12291;DHT22;6208;48.956;9.076;2023-05-17T12:16:40;13.50;95.80
12291;DHT22;6208;48.956;9.076;2023-05-17T12:19:25;13.60;94.50
12291;DHT22;6208;48.956;9.076;2023-05-17T12:22:12;13.70;94.00
12291;DHT22;6208;48.956;9.076;2023-05-17T12:24:56;13.80;94.10
12291;DHT22;6208;48.956;9.076;2023-05-17T12:27:40;13.80;93.40
12291;DHT22;6208;48.956;9.076;2023-05-17T12:35:54;13.80;93.90
12291;DHT22;6208;48.956;9.076;2023-05-17T12:38:40;13.90;94.70
12291;DHT22;6208;48.956;9.076;2023-05-17T12:41:25;13.80;94.70
12291;DHT22;6208;48.956;9.076;2023-05-17T12:44:10;13.80;95.00
12291;DHT22;6208;48.956;9.076;2023-05-17T12:46:54;13.80;95.20
12291;DHT22;6208;48.956;9.076;2023-05-17T12:49:53;13.80;95.80
12291;DHT22;6208;48.956;9.076;2023-05-17T12:52:39;13.70;94.50
12291;DHT22;6208;48.956;9.076;2023-05-17T12:55:24;13.50;96.10
12291;DHT22;6208;48.956;9.076;2023-05-17T12:58:08;13.50;95.40
12291;DHT22;6208;48.956;9.076;2023-05-17T13:01:03;13.60;94.90
12291;DHT22;6208;48.956;9.076;2023-05-17T13:03:50;13.50;95.30
12291;DHT22;6208;48.956;9.076;2023-05-17T13:06:55;13.50;96.10
12291;DHT22;6208;48.956;9.076;2023-05-17T13:09:46;13.70;94.00
12291;DHT22;6208;48.956;9.076;2023-05-17T13:15:15;13.70;94.20
12291;DHT22;6208;48.956;9.076;2023-05-17T13:17:59;13.80;94.80
12291;DHT22;6208;48.956;9.076;2023-05-17T13:20:55;13.80;92.20
12291;DHT22;6208;48.956;9.076;2023-05-17T13:23:46;13.80;93.50
12291;DHT22;6208;48.956;9.076;2023-05-17T13:31:59;14.10;91.30
12291;DHT22;6208;48.956;9.076;2023-05-17T13:40:13;14.30;90.20
12291;DHT22;6208;48.956;9.076;2023-05-17T13:45:42;14.20;91.70
12291;DHT22;6208;48.956;9.076;2023-05-17T13:51:10;13.90;92.20
12291;DHT22;6208;48.956;9.076;2023-05-17T13:53:54;13.90;93.20
12291;DHT22;6208;48.956;9.076;2023-05-17T13:56:39;13.90;93.70
12291;DHT22;6208;48.956;9.076;2023-05-17T13:59:23;13.70;92.40
12291;DHT22;6208;48.956;9.076;2023-05-17T14:02:08;13.60;92.60
12291;DHT22;6208;48.956;9.076;2023-05-17T14:04:53;13.50;92.60
12291;DHT22;6208;48.956;9.076;2023-05-17T14:10:24;13.60;92.90
12291;DHT22;6208;48.956;9.076;2023-05-17T14:15:54;13.40;92.30
12291;DHT22;6208;48.956;9.076;2023-05-17T14:21:23;13.70;92.20
12291;DHT22;6208;48.956;9.076;2023-05-17T14:24:07;13.90;91.50
12291;DHT22;6208;48.956;9.076;2023-05-17T14:26:51;13.70;91.60
12291;DHT22;6208;48.956;9.076;2023-05-17T14:32:19;13.80;91.80
12291;DHT22;6208;48.956;9.076;2023-05-17T14:35:05;13.90;90.60
12291;DHT22;6208;48.956;9.076;2023-05-17T14:37:50;14.00;90.80
12291;DHT22;6208;48.956;9.076;2023-05-17T14:43:19;14.00;88.10
12291;DHT22;6208;48.956;9.076;2023-05-17T14:46:03;14.00;89.90
12291;DHT22;6208;48.956;9.076;2023-05-17T14:54:19;14.70;81.70
12291;DHT22;6208;48.956;9.076;2023-05-17T14:57:04;15.00;80.40
12291;DHT22;6208;48.956;9.076;2023-05-17T14:59:49;15.20;79.10
12291;DHT22;6208;48.956;9.076;2023-05-17T15:08:02;14.90;84.30
12291;DHT22;6208;48.956;9.076;2023-05-17T15:10:50;15.20;79.70
12291;DHT22;6208;48.956;9.076;2023-05-17T15:21:50;15.30;81.00
12291;DHT22;6208;48.956;9.076;2023-05-17T15:24:34;15.30;75.80
12291;DHT22;6208;48.956;9.076;2023-05-17T15:27:20;15.30;79.00
12291;DHT22;6208;48.956;9.076;2023-05-17T15:30:05;15.00;87.20
12291;DHT22;6208;48.956;9.076;2023-05-17T15:38:19;15.10;87.00
12291;DHT22;6208;48.956;9.076;2023-05-17T15:41:05;15.10;91.20
12291;DHT22;6208;48.956;9.076;2023-05-17T15:43:49;15.00;91.10
12291;DHT22;6208;48.956;9.076;2023-05-17T15:46:34;15.00;90.30
12291;DHT22;6208;48.956;9.076;2023-05-17T15:52:03;15.00;88.30
12291;DHT22;6208;48.956;9.076;2023-05-17T15:54:47;15.10;88.50
12291;DHT22;6208;48.956;9.076;2023-05-17T16:00:18;15.40;87.50
12291;DHT22;6208;48.956;9.076;2023-05-17T16:03:03;15.40;81.20
12291;DHT22;6208;48.956;9.076;2023-05-17T16:05:47;15.50;82.60
12291;DHT22;6208;48.956;9.076;2023-05-17T16:14:00;15.70;82.40
12291;DHT22;6208;48.956;9.076;2023-05-17T16:19:29;15.70;80.20
12291;DHT22;6208;48.956;9.076;2023-05-17T16:27:47;15.70;77.70
12291;DHT22;6208;48.956;9.076;2023-05-17T16:30:32;15.70;80.80
12291;DHT22;6208;48.956;9.076;2023-05-17T16:33:16;15.80;77.60
12291;DHT22;6208;48.956;9.076;2023-05-17T16:36:03;15.80;80.30
12291;DHT22;6208;48.956;9.076;2023-05-17T16:38:48;15.90;76.40
12291;DHT22;6208;48.956;9.076;2023-05-17T16:44:18;15.70;77.60
12291;DHT22;6208;48.956;9.076;2023-05-17T16:47:02;15.80;77.60
12291;DHT22;6208;48.956;9.076;2023-05-17T16:49:47;15.80;72.90
12291;DHT22;6208;48.956;9.076;2023-05-17T16:55:16;15.60;77.50
12291;DHT22;6208;48.956;9.076;2023-05-17T16:58:00;15.50;77.30
12291;DHT22;6208;48.956;9.076;2023-05-17T17:00:44;15.30;75.10
12291;DHT22;6208;48.956;9.076;2023-05-17T17:03:28;15.20;80.70
12291;DHT22;6208;48.956;9.076;2023-05-17T17:06:12;15.20;81.80
12291;DHT22;6208;48.956;9.076;2023-05-17T17:08:56;15.30;77.10
12291;DHT22;6208;48.956;9.076;2023-05-17T17:14:25;15.20;78.50
12291;DHT22;6208;48.956;9.076;2023-05-17T17:17:09;15.10;81.60
12291;DHT22;6208;48.956;9.076;2023-05-17T17:19:53;15.10;81.00
12291;DHT22;6208;48.956;9.076;2023-05-17T17:22:37;15.10;81.00
12291;DHT22;6208;48.956;9.076;2023-05-17T17:25:22;15.10;80.50
12291;DHT22;6208;48.956;9.076;2023-05-17T17:28:07;15.00;77.10
12291;DHT22;6208;48.956;9.076;2023-05-17T17:30:52;15.00;78.40
12291;DHT22;6208;48.956;9.076;2023-05-17T17:33:36;14.90;78.10
12291;DHT22;6208;48.956;9.076;2023-05-17T17:36:20;14.60;77.20
12291;DHT22;6208;48.956;9.076;2023-05-17T17:39:04;14.60;80.90
12291;DHT22;6208;48.956;9.076;2023-05-17T17:44:34;14.80;79.00
12291;DHT22;6208;48.956;9.076;2023-05-17T17:47:18;14.70;81.70
12291;DHT22;6208;48.956;9.076;2023-05-17T17:52:49;14.70;87.10
12291;DHT22;6208;48.956;9.076;2023-05-17T17:55:33;14.80;86.40
12291;DHT22;6208;48.956;9.076;2023-05-17T17:58:17;14.80;86.20
12291;DHT22;6208;48.956;9.076;2023-05-17T18:01:01;14.80;83.90
12291;DHT22;6208;48.956;9.076;2023-05-17T18:06:30;14.40;92.60
12291;DHT22;6208;48.956;9.076;2023-05-17T18:11:58;14.20;83.00
12291;DHT22;6208;48.956;9.076;2023-05-17T18:17:28;14.20;83.60
12291;DHT22;6208;48.956;9.076;2023-05-17T18:22:56;14.10;84.40
12291;DHT22;6208;48.956;9.076;2023-05-17T18:25:40;14.00;85.10
12291;DHT22;6208;48.956;9.076;2023-05-17T18:28:24;14.00;84.50
12291;DHT22;6208;48.956;9.076;2023-05-17T18:31:09;14.00;83.80
12291;DHT22;6208;48.956;9.076;2023-05-17T18:33:53;13.80;90.80
12291;DHT22;6208;48.956;9.076;2023-05-17T18:36:37;13.80;90.60
12291;DHT22;6208;48.956;9.076;2023-05-17T18:39:21;13.80;91.50
12291;DHT22;6208;48.956;9.076;2023-05-17T18:42:05;13.70;94.00
12291;DHT22;6208;48.956;9.076;2023-05-17T18:44:49;13.70;94.10
12291;DHT22;6208;48.956;9.076;2023-05-17T18:53:04;13.80;92.40
12291;DHT22;6208;48.956;9.076;2023-05-17T19:01:17;13.40;96.80
12291;DHT22;6208;48.956;9.076;2023-05-17T19:04:02;13.30;97.40
12291;DHT22;6208;48.956;9.076;2023-05-17T19:09:31;12.90;99.50
12291;DHT22;6208;48.956;9.076;2023-05-17T19:12:17;12.70;99.90
12291;DHT22;6208;48.956;9.076;2023-05-17T19:15:02;12.50;99.90
12291;DHT22;6208;48.956;9.076;2023-05-17T19:20:32;12.40;99.90
12291;DHT22;6208;48.956;9.076;2023-05-17T19:23:17;12.50;99.90
12291;DHT22;6208;48.956;9.076;2023-05-17T19:26:01;12.50;99.90
12291;DHT22;6208;48.956;9.076;2023-05-17T19:28:46;12.40;99.90
12291;DHT22;6208;48.956;9.076;2023-05-17T19:31:30;12.30;99.90
12291;DHT22;6208;48.956;9.076;2023-05-17T19:34:14;12.00;99.90
12291;DHT22;6208;48.956;9.076;2023-05-17T19:36:58;11.70;99.90
12291;DHT22;6208;48.956;9.076;2023-05-17T19:39:43;11.80;99.90
12291;DHT22;6208;48.956;9.076;2023-05-17T19:42:28;11.80;99.90
12291;DHT22;6208;48.956;9.076;2023-05-17T19:45:12;11.80;99.90
12291;DHT22;6208;48.956;9.076;2023-05-17T19:47:57;11.80;99.90
12291;DHT22;6208;48.956;9.076;2023-05-17T19:53:26;11.60;99.90
12291;DHT22;6208;48.956;9.076;2023-05-17T19:58:55;11.50;99.90
12291;DHT22;6208;48.956;9.076;2023-05-17T20:01:39;11.50;99.90
12291;DHT22;6208;48.956;9.076;2023-05-17T20:04:23;11.50;99.90
12291;DHT22;6208;48.956;9.076;2023-05-17T20:07:07;11.50;99.90
12291;DHT22;6208;48.956;9.076;2023-05-17T20:12:37;11.30;99.90
12291;DHT22;6208;48.956;9.076;2023-05-17T20:15:22;11.20;99.90
12291;DHT22;6208;48.956;9.076;2023-05-17T20:18:07;11.10;99.90
12291;DHT22;6208;48.956;9.076;2023-05-17T20:23:39;10.90;99.90
12291;DHT22;6208;48.956;9.076;2023-05-17T20:26:23;10.90;99.90
12291;DHT22;6208;48.956;9.076;2023-05-17T20:29:10;10.70;99.90
12291;DHT22;6208;48.956;9.076;2023-05-17T20:34:39;10.50;99.90
12291;DHT22;6208;48.956;9.076;2023-05-17T20:37:23;10.40;99.90
12291;DHT22;6208;48.956;9.076;2023-05-17T20:40:07;10.50;99.90
12291;DHT22;6208;48.956;9.076;2023-05-17T20:45:37;10.10;99.90
12291;DHT22;6208;48.956;9.076;2023-05-17T20:48:21;10.10;99.90
12291;DHT22;6208;48.956;9.076;2023-05-17T20:51:05;10.00;99.90
12291;DHT22;6208;48.956;9.076;2023-05-17T20:53:49;10.00;99.90
12291;DHT22;6208;48.956;9.076;2023-05-17T20:56:34;9.90;99.90
12291;DHT22;6208;48.956;9.076;2023-05-17T20:59:19;9.70;99.90
12291;DHT22;6208;48.956;9.076;2023-05-17T21:02:04;9.70;99.90
12291;DHT22;6208;48.956;9.076;2023-05-17T21:10:22;9.40;99.90
12291;DHT22;6208;48.956;9.076;2023-05-17T21:13:07;9.40;99.90
12291;DHT22;6208;48.956;9.076;2023-05-17T21:15:55;9.30;99.90
12291;DHT22;6208;48.956;9.076;2023-05-17T21:21:25;9.20;99.90
12291;DHT22;6208;48.956;9.076;2023-05-17T21:24:09;9.20;99.90
12291;DHT22;6208;48.956;9.076;2023-05-17T21:26:53;9.30;99.90
12291;DHT22;6208;48.956;9.076;2023-05-17T21:29:37;9.50;99.90
12291;DHT22;6208;48.956;9.076;2023-05-17T21:32:21;9.40;99.90
12291;DHT22;6208;48.956;9.076;2023-05-17T21:35:05;9.30;99.90
12291;DHT22;6208;48.956;9.076;2023-05-17T21:37:49;9.40;99.90
12291;DHT22;6208;48.956;9.076;2023-05-17T21:40:34;9.50;99.90
12291;DHT22;6208;48.956;9.076;2023-05-17T21:43:18;9.30;99.90
12291;DHT22;6208;48.956;9.076;2023-05-17T21:46:02;9.30;99.90
12291;DHT22;6208;48.956;9.076;2023-05-17T21:48:46;9.10;99.90
12291;DHT22;6208;48.956;9.076;2023-05-17T21:51:30;9.00;99.90
12291;DHT22;6208;48.956;9.076;2023-05-17T21:59:43;8.60;99.90
12291;DHT22;6208;48.956;9.076;2023-05-17T22:02:28;8.50;99.90
12291;DHT22;6208;48.956;9.076;2023-05-17T22:05:13;8.50;99.90
12291;DHT22;6208;48.956;9.076;2023-05-17T22:13:27;8.40;99.90
12291;DHT22;6208;48.956;9.076;2023-05-17T22:16:12;8.60;99.90
12291;DHT22;6208;48.956;9.076;2023-05-17T22:21:43;8.50;99.90
12291;DHT22;6208;48.956;9.076;2023-05-17T22:24:27;8.30;99.90
12291;DHT22;6208;48.956;9.076;2023-05-17T22:27:11;8.30;99.90
12291;DHT22;6208;48.956;9.076;2023-05-17T22:29:55;8.20;99.90
12291;DHT22;6208;48.956;9.076;2023-05-17T22:32:39;8.20;99.90
12291;DHT22;6208;48.956;9.076;2023-05-17T22:35:23;8.20;99.90
12291;DHT22;6208;48.956;9.076;2023-05-17T22:38:07;8.10;99.90
12291;DHT22;6208;48.956;9.076;2023-05-17T22:40:51;8.00;99.90
12291;DHT22;6208;48.956;9.076;2023-05-17T22:43:35;8.00;99.90
12291;DHT22;6208;48.956;9.076;2023-05-17T22:46:20;8.10;99.90
12291;DHT22;6208;48.956;9.076;2023-05-17T22:49:04;8.00;99.90
12291;DHT22;6208;48.956;9.076;2023-05-17T22:51:48;8.00;99.90
12291;DHT22;6208;48.956;9.076;2023-05-17T22:54:33;8.30;99.90
12291;DHT22;6208;48.956;9.076;2023-05-17T22:57:18;8.30;99.90
12291;DHT22;6208;48.956;9.076;2023-05-17T23:00:03;8.50;99.90
12291;DHT22;6208;48.956;9.076;2023-05-17T23:02:51;8.30;99.90
12291;DHT22;6208;48.956;9.076;2023-05-17T23:05:36;8.10;99.90
12291;DHT22;6208;48.956;9.076;2023-05-17T23:08:20;8.10;99.90
12291;DHT22;6208;48.956;9.076;2023-05-17T23:11:05;8.10;99.90
12291;DHT22;6208;48.956;9.076;2023-05-17T23:13:48;8.40;99.90
12291;DHT22;6208;48.956;9.076;2023-05-17T23:19:19;8.30;99.90
12291;DHT22;6208;48.956;9.076;2023-05-17T23:24:49;8.00;99.90
12291;DHT22;6208;48.956;9.076;2023-05-17T23:27:33;7.60;99.90
12291;DHT22;6208;48.956;9.076;2023-05-17T23:30:18;7.50;99.90
12291;DHT22;6208;48.956;9.076;2023-05-17T23:35:47;7.40;99.90
12291;DHT22;6208;48.956;9.076;2023-05-17T23:41:16;7.20;99.90
12291;DHT22;6208;48.956;9.076;2023-05-17T23:44:05;7.30;99.90
12291;DHT22;6208;48.956;9.076;2023-05-17T23:46:50;7.20;99.90
12291;DHT22;6208;48.956;9.076;2023-05-17T23:49:37;7.10;99.90
12291;DHT22;6208;48.956;9.076;2023-05-17T23:52:21;7.20;99.90
12291;DHT22;6208;48.956;9.076;2023-05-17T23:57:51;7.40;99.90
